sensor_id;sensor_type;location;lat;lon;timestamp;temperature;humidity
13328;DHT22;6733;51.044;3.746;2023-09-19T00:00:46;15.90;99.90
13328;DHT22;6733;51.044;3.746;2023-09-19T00:03:16;15.90;99.90
13328;DHT22;6733;51.044;3.746;2023-09-19T00:05:42;16.00;99.90
13328;DHT22;6733;51.044;3.746;2023-09-19T00:08:10;16.00;99.90
13328;DHT22;6733;51.044;3.746;2023-09-19T00:10:36;16.00;99.90
13328;DHT22;6733;51.044;3.746;2023-09-19T00:13:03;16.00;99.90
13328;DHT22;6733;51.044;3.746;2023-09-19T00:15:39;15.90;99.90
13328;DHT22;6733;51.044;3.746;2023-09-19T00:18:06;16.00;99.90
13328;DHT22;6733;51.044;3.746;2023-09-19T00:20:38;15.90;99.90
13328;DHT22;6733;51.044;3.746;2023-09-19T00:23:05;15.90;99.90
13328;DHT22;6733;51.044;3.746;2023-09-19T00:25:31;15.90;99.90
13328;DHT22;6733;51.044;3.746;2023-09-19T00:28:01;15.90;99.90
13328;DHT22;6733;51.044;3.746;2023-09-19T00:30:27;15.90;99.90
13328;DHT22;6733;51.044;3.746;2023-09-19T00:32:54;15.90;99.90
13328;DHT22;6733;51.044;3.746;2023-09-19T00:35:21;15.90;99.90
13328;DHT22;6733;51.044;3.746;2023-09-19T00:37:51;15.90;99.90
13328;DHT22;6733;51.044;3.746;2023-09-19T00:40:18;15.80;99.90
13328;DHT22;6733;51.044;3.746;2023-09-19T00:42:45;15.90;99.90
13328;DHT22;6733;51.044;3.746;2023-09-19T00:45:14;15.90;99.90
13328;DHT22;6733;51.044;3.746;2023-09-19T00:47:43;15.80;99.90
13328;DHT22;6733;51.044;3.746;2023-09-19T00:50:10;15.80;99.90
13328;DHT22;6733;51.044;3.746;2023-09-19T00:52:37;15.90;99.90
13328;DHT22;6733;51.044;3.746;2023-09-19T00:55:08;15.90;99.90
13328;DHT22;6733;51.044;3.746;2023-09-19T00:57:36;15.90;99.90
13328;DHT22;6733;51.044;3.746;2023-09-19T01:00:06;15.90;99.90
13328;DHT22;6733;51.044;3.746;2023-09-19T01:02:35;15.90;99.90
13328;DHT22;6733;51.044;3.746;2023-09-19T01:05:01;15.90;99.90
13328;DHT22;6733;51.044;3.746;2023-09-19T01:07:30;15.90;99.90
13328;DHT22;6733;51.044;3.746;2023-09-19T01:09:58;15.90;99.90
13328;DHT22;6733;51.044;3.746;2023-09-19T01:13:18;15.90;99.90
13328;DHT22;6733;51.044;3.746;2023-09-19T01:29:38;16.00;99.90
13328;DHT22;6733;51.044;3.746;2023-09-19T01:32:06;16.00;99.90
13328;DHT22;6733;51.044;3.746;2023-09-19T01:34:54;16.00;99.90
13328;DHT22;6733;51.044;3.746;2023-09-19T01:37:22;16.00;99.90
13328;DHT22;6733;51.044;3.746;2023-09-19T01:42:40;16.00;99.90
13328;DHT22;6733;51.044;3.746;2023-09-19T01:47:52;16.10;99.90
13328;DHT22;6733;51.044;3.746;2023-09-19T01:52:57;16.20;99.90
13328;DHT22;6733;51.044;3.746;2023-09-19T01:55:29;16.20;99.90
13328;DHT22;6733;51.044;3.746;2023-09-19T01:58:08;16.20;99.90
13328;DHT22;6733;51.044;3.746;2023-09-19T02:00:41;16.10;99.90
13328;DHT22;6733;51.044;3.746;2023-09-19T02:03:09;16.10;99.90
13328;DHT22;6733;51.044;3.746;2023-09-19T02:05:35;16.10;99.90
13328;DHT22;6733;51.044;3.746;2023-09-19T02:08:01;16.10;99.90
13328;DHT22;6733;51.044;3.746;2023-09-19T02:10:28;16.10;99.90
13328;DHT22;6733;51.044;3.746;2023-09-19T02:12:54;16.10;99.90
13328;DHT22;6733;51.044;3.746;2023-09-19T02:15:20;16.10;99.90
13328;DHT22;6733;51.044;3.746;2023-09-19T02:17:48;16.10;99.90
13328;DHT22;6733;51.044;3.746;2023-09-19T02:20:14;16.10;99.90
13328;DHT22;6733;51.044;3.746;2023-09-19T02:22:42;16.10;99.90
13328;DHT22;6733;51.044;3.746;2023-09-19T02:25:08;16.10;99.90
13328;DHT22;6733;51.044;3.746;2023-09-19T02:27:34;16.10;99.90
13328;DHT22;6733;51.044;3.746;2023-09-19T02:30:01;16.10;99.90
13328;DHT22;6733;51.044;3.746;2023-09-19T02:58:37;16.50;99.90
13328;DHT22;6733;51.044;3.746;2023-09-19T03:01:12;16.50;99.90
13328;DHT22;6733;51.044;3.746;2023-09-19T03:03:39;16.50;99.90
13328;DHT22;6733;51.044;3.746;2023-09-19T03:06:06;16.50;99.90
13328;DHT22;6733;51.044;3.746;2023-09-19T03:08:36;16.50;99.90
13328;DHT22;6733;51.044;3.746;2023-09-19T03:11:06;16.50;99.90
13328;DHT22;6733;51.044;3.746;2023-09-19T03:13:34;16.50;99.90
13328;DHT22;6733;51.044;3.746;2023-09-19T03:16:02;16.50;99.90
13328;DHT22;6733;51.044;3.746;2023-09-19T03:18:34;16.50;99.90
13328;DHT22;6733;51.044;3.746;2023-09-19T03:21:00;16.50;99.90
13328;DHT22;6733;51.044;3.746;2023-09-19T03:23:27;16.40;99.90
13328;DHT22;6733;51.044;3.746;2023-09-19T03:25:55;16.40;99.90
13328;DHT22;6733;51.044;3.746;2023-09-19T03:28:22;16.30;99.90
13328;DHT22;6733;51.044;3.746;2023-09-19T03:31:02;16.40;99.90
13328;DHT22;6733;51.044;3.746;2023-09-19T03:33:29;16.40;99.90
13328;DHT22;6733;51.044;3.746;2023-09-19T03:36:01;16.40;99.90
13328;DHT22;6733;51.044;3.746;2023-09-19T03:38:43;16.30;99.90
13328;DHT22;6733;51.044;3.746;2023-09-19T03:41:12;16.30;99.90
13328;DHT22;6733;51.044;3.746;2023-09-19T03:43:40;16.20;99.90
13328;DHT22;6733;51.044;3.746;2023-09-19T03:46:06;16.20;99.90
13328;DHT22;6733;51.044;3.746;2023-09-19T03:48:33;16.10;99.90
13328;DHT22;6733;51.044;3.746;2023-09-19T03:50:59;16.10;99.90
13328;DHT22;6733;51.044;3.746;2023-09-19T03:53:26;16.10;99.90
13328;DHT22;6733;51.044;3.746;2023-09-19T03:55:52;16.10;99.90
13328;DHT22;6733;51.044;3.746;2023-09-19T03:58:18;16.00;99.90
13328;DHT22;6733;51.044;3.746;2023-09-19T04:00:45;16.00;99.90
13328;DHT22;6733;51.044;3.746;2023-09-19T04:03:11;15.90;99.90
13328;DHT22;6733;51.044;3.746;2023-09-19T04:05:45;15.90;99.90
13328;DHT22;6733;51.044;3.746;2023-09-19T04:08:12;15.80;99.90
13328;DHT22;6733;51.044;3.746;2023-09-19T04:10:42;15.80;99.90
13328;DHT22;6733;51.044;3.746;2023-09-19T04:13:09;15.80;99.90
13328;DHT22;6733;51.044;3.746;2023-09-19T04:15:36;15.70;99.90
13328;DHT22;6733;51.044;3.746;2023-09-19T04:18:03;15.70;99.90
13328;DHT22;6733;51.044;3.746;2023-09-19T04:20:29;15.70;99.90
13328;DHT22;6733;51.044;3.746;2023-09-19T04:22:55;15.70;99.90
13328;DHT22;6733;51.044;3.746;2023-09-19T04:25:22;15.60;99.90
13328;DHT22;6733;51.044;3.746;2023-09-19T04:27:48;15.60;99.90
13328;DHT22;6733;51.044;3.746;2023-09-19T04:30:14;15.60;99.90
13328;DHT22;6733;51.044;3.746;2023-09-19T04:32:41;15.60;99.90
13328;DHT22;6733;51.044;3.746;2023-09-19T04:35:08;15.50;99.90
13328;DHT22;6733;51.044;3.746;2023-09-19T04:37:41;15.50;99.90
13328;DHT22;6733;51.044;3.746;2023-09-19T04:40:10;15.50;99.90
13328;DHT22;6733;51.044;3.746;2023-09-19T04:42:52;15.60;99.90
13328;DHT22;6733;51.044;3.746;2023-09-19T04:45:26;15.60;99.90
13328;DHT22;6733;51.044;3.746;2023-09-19T04:47:53;15.60;99.90
13328;DHT22;6733;51.044;3.746;2023-09-19T04:50:19;15.60;99.90
13328;DHT22;6733;51.044;3.746;2023-09-19T04:52:50;15.50;99.90
13328;DHT22;6733;51.044;3.746;2023-09-19T04:55:17;15.50;99.90
13328;DHT22;6733;51.044;3.746;2023-09-19T04:57:45;15.50;99.90
13328;DHT22;6733;51.044;3.746;2023-09-19T05:00:16;15.60;99.90
13328;DHT22;6733;51.044;3.746;2023-09-19T05:02:45;15.60;99.90
13328;DHT22;6733;51.044;3.746;2023-09-19T05:05:12;15.60;99.90
13328;DHT22;6733;51.044;3.746;2023-09-19T05:07:41;15.60;99.90
13328;DHT22;6733;51.044;3.746;2023-09-19T05:10:08;15.60;99.90
13328;DHT22;6733;51.044;3.746;2023-09-19T05:12:35;15.60;99.90
13328;DHT22;6733;51.044;3.746;2023-09-19T05:15:02;15.60;99.90
13328;DHT22;6733;51.044;3.746;2023-09-19T05:17:29;15.60;99.90
13328;DHT22;6733;51.044;3.746;2023-09-19T05:19:55;15.60;99.90
13328;DHT22;6733;51.044;3.746;2023-09-19T05:22:22;15.60;99.90
13328;DHT22;6733;51.044;3.746;2023-09-19T05:24:50;15.60;99.90
13328;DHT22;6733;51.044;3.746;2023-09-19T05:27:17;15.60;99.90
13328;DHT22;6733;51.044;3.746;2023-09-19T05:29:44;15.60;99.90
13328;DHT22;6733;51.044;3.746;2023-09-19T05:32:11;15.60;99.90
13328;DHT22;6733;51.044;3.746;2023-09-19T05:34:38;15.50;99.90
13328;DHT22;6733;51.044;3.746;2023-09-19T05:37:04;15.50;99.90
13328;DHT22;6733;51.044;3.746;2023-09-19T05:39:34;15.50;99.90
13328;DHT22;6733;51.044;3.746;2023-09-19T05:42:00;15.50;99.90
13328;DHT22;6733;51.044;3.746;2023-09-19T05:44:26;15.50;99.90
13328;DHT22;6733;51.044;3.746;2023-09-19T05:46:53;15.50;99.90
13328;DHT22;6733;51.044;3.746;2023-09-19T05:49:22;15.60;99.90
13328;DHT22;6733;51.044;3.746;2023-09-19T05:51:50;15.60;99.90
13328;DHT22;6733;51.044;3.746;2023-09-19T05:54:20;15.70;99.90
13328;DHT22;6733;51.044;3.746;2023-09-19T05:56:46;15.70;99.90
13328;DHT22;6733;51.044;3.746;2023-09-19T05:59:13;15.70;99.90
13328;DHT22;6733;51.044;3.746;2023-09-19T06:01:42;15.80;99.90
13328;DHT22;6733;51.044;3.746;2023-09-19T06:04:09;15.90;99.90
13328;DHT22;6733;51.044;3.746;2023-09-19T06:06:35;16.00;99.90
13328;DHT22;6733;51.044;3.746;2023-09-19T06:09:05;16.10;99.90
13328;DHT22;6733;51.044;3.746;2023-09-19T06:11:32;16.10;99.90
13328;DHT22;6733;51.044;3.746;2023-09-19T06:14:04;16.10;99.90
13328;DHT22;6733;51.044;3.746;2023-09-19T06:16:30;16.20;99.90
13328;DHT22;6733;51.044;3.746;2023-09-19T06:18:58;16.20;99.90
13328;DHT22;6733;51.044;3.746;2023-09-19T06:21:27;16.20;99.90
13328;DHT22;6733;51.044;3.746;2023-09-19T06:23:53;16.20;99.90
13328;DHT22;6733;51.044;3.746;2023-09-19T06:26:20;16.30;99.90
13328;DHT22;6733;51.044;3.746;2023-09-19T06:28:46;16.30;99.90
13328;DHT22;6733;51.044;3.746;2023-09-19T06:31:12;16.30;99.90
13328;DHT22;6733;51.044;3.746;2023-09-19T06:33:38;16.50;99.90
13328;DHT22;6733;51.044;3.746;2023-09-19T06:36:06;16.70;99.90
13328;DHT22;6733;51.044;3.746;2023-09-19T06:38:32;16.60;99.90
13328;DHT22;6733;51.044;3.746;2023-09-19T06:41:00;16.50;99.90
13328;DHT22;6733;51.044;3.746;2023-09-19T06:43:27;16.50;99.90
13328;DHT22;6733;51.044;3.746;2023-09-19T06:45:56;16.50;99.90
13328;DHT22;6733;51.044;3.746;2023-09-19T06:48:23;16.40;99.90
13328;DHT22;6733;51.044;3.746;2023-09-19T06:50:59;17.10;99.90
13328;DHT22;6733;51.044;3.746;2023-09-19T06:53:34;16.90;99.90
13328;DHT22;6733;51.044;3.746;2023-09-19T06:56:02;16.80;99.90
13328;DHT22;6733;51.044;3.746;2023-09-19T06:58:28;17.10;99.90
13328;DHT22;6733;51.044;3.746;2023-09-19T07:00:54;17.80;99.90
13328;DHT22;6733;51.044;3.746;2023-09-19T07:03:22;18.40;99.90
13328;DHT22;6733;51.044;3.746;2023-09-19T07:05:51;18.20;99.90
13328;DHT22;6733;51.044;3.746;2023-09-19T07:08:18;18.60;99.90
13328;DHT22;6733;51.044;3.746;2023-09-19T07:10:45;18.20;99.90
13328;DHT22;6733;51.044;3.746;2023-09-19T07:13:15;18.20;99.90
13328;DHT22;6733;51.044;3.746;2023-09-19T07:15:43;18.30;99.90
13328;DHT22;6733;51.044;3.746;2023-09-19T07:18:13;18.10;99.90
13328;DHT22;6733;51.044;3.746;2023-09-19T07:20:46;18.30;99.90
13328;DHT22;6733;51.044;3.746;2023-09-19T07:23:18;18.50;99.90
13328;DHT22;6733;51.044;3.746;2023-09-19T07:25:48;19.00;99.90
13328;DHT22;6733;51.044;3.746;2023-09-19T07:28:15;18.70;99.90
13328;DHT22;6733;51.044;3.746;2023-09-19T07:30:41;19.00;99.90
13328;DHT22;6733;51.044;3.746;2023-09-19T07:33:07;18.70;99.90
13328;DHT22;6733;51.044;3.746;2023-09-19T07:35:37;18.90;99.90
13328;DHT22;6733;51.044;3.746;2023-09-19T07:38:06;19.20;99.90
13328;DHT22;6733;51.044;3.746;2023-09-19T07:40:33;18.80;99.90
13328;DHT22;6733;51.044;3.746;2023-09-19T07:43:00;19.10;99.90
13328;DHT22;6733;51.044;3.746;2023-09-19T07:45:33;19.10;99.90
13328;DHT22;6733;51.044;3.746;2023-09-19T07:48:03;19.30;99.90
13328;DHT22;6733;51.044;3.746;2023-09-19T07:50:30;19.30;99.90
13328;DHT22;6733;51.044;3.746;2023-09-19T07:52:56;19.60;99.90
13328;DHT22;6733;51.044;3.746;2023-09-19T07:55:23;19.60;99.90
13328;DHT22;6733;51.044;3.746;2023-09-19T07:57:52;19.70;99.90
13328;DHT22;6733;51.044;3.746;2023-09-19T08:00:18;19.80;99.90
13328;DHT22;6733;51.044;3.746;2023-09-19T08:02:45;20.10;99.90
13328;DHT22;6733;51.044;3.746;2023-09-19T08:05:12;19.90;99.90
13328;DHT22;6733;51.044;3.746;2023-09-19T08:07:42;20.10;99.90
13328;DHT22;6733;51.044;3.746;2023-09-19T08:10:09;20.30;99.90
13328;DHT22;6733;51.044;3.746;2023-09-19T08:12:39;20.20;99.90
13328;DHT22;6733;51.044;3.746;2023-09-19T08:15:16;20.40;99.90
13328;DHT22;6733;51.044;3.746;2023-09-19T08:17:43;20.60;99.90
13328;DHT22;6733;51.044;3.746;2023-09-19T08:20:10;20.50;99.90
13328;DHT22;6733;51.044;3.746;2023-09-19T08:22:50;20.40;99.90
13328;DHT22;6733;51.044;3.746;2023-09-19T08:25:26;20.60;99.90
13328;DHT22;6733;51.044;3.746;2023-09-19T08:27:52;20.70;99.90
13328;DHT22;6733;51.044;3.746;2023-09-19T08:30:20;20.50;99.90
13328;DHT22;6733;51.044;3.746;2023-09-19T08:32:59;20.50;99.90
13328;DHT22;6733;51.044;3.746;2023-09-19T08:35:27;20.70;99.90
13328;DHT22;6733;51.044;3.746;2023-09-19T08:37:53;20.90;99.90
13328;DHT22;6733;51.044;3.746;2023-09-19T08:40:22;21.00;99.90
13328;DHT22;6733;51.044;3.746;2023-09-19T08:42:52;21.20;99.90
13328;DHT22;6733;51.044;3.746;2023-09-19T08:45:20;21.50;99.90
13328;DHT22;6733;51.044;3.746;2023-09-19T08:48:26;21.30;99.90
13328;DHT22;6733;51.044;3.746;2023-09-19T08:51:07;21.20;99.90
13328;DHT22;6733;51.044;3.746;2023-09-19T08:53:51;21.00;99.90
13328;DHT22;6733;51.044;3.746;2023-09-19T08:56:18;21.20;99.90
13328;DHT22;6733;51.044;3.746;2023-09-19T08:58:54;21.20;99.90
13328;DHT22;6733;51.044;3.746;2023-09-19T09:01:21;20.70;99.90
13328;DHT22;6733;51.044;3.746;2023-09-19T09:03:54;21.00;99.90
13328;DHT22;6733;51.044;3.746;2023-09-19T09:06:22;21.00;99.90
13328;DHT22;6733;51.044;3.746;2023-09-19T09:08:51;20.90;99.90
13328;DHT22;6733;51.044;3.746;2023-09-19T09:11:18;21.00;99.90
13328;DHT22;6733;51.044;3.746;2023-09-19T09:13:45;21.20;99.90
13328;DHT22;6733;51.044;3.746;2023-09-19T09:16:12;21.30;99.90
13328;DHT22;6733;51.044;3.746;2023-09-19T09:18:40;21.50;99.90
13328;DHT22;6733;51.044;3.746;2023-09-19T09:21:07;21.10;99.90
13328;DHT22;6733;51.044;3.746;2023-09-19T09:23:33;21.20;99.90
13328;DHT22;6733;51.044;3.746;2023-09-19T09:26:00;21.10;99.90
13328;DHT22;6733;51.044;3.746;2023-09-19T09:28:30;21.10;99.90
13328;DHT22;6733;51.044;3.746;2023-09-19T09:30:57;20.80;99.90
13328;DHT22;6733;51.044;3.746;2023-09-19T09:33:38;21.10;99.90
13328;DHT22;6733;51.044;3.746;2023-09-19T09:36:05;21.00;99.90
13328;DHT22;6733;51.044;3.746;2023-09-19T09:38:46;20.90;99.90
13328;DHT22;6733;51.044;3.746;2023-09-19T09:41:16;21.10;99.90
13328;DHT22;6733;51.044;3.746;2023-09-19T09:43:53;21.60;99.90
13328;DHT22;6733;51.044;3.746;2023-09-19T09:46:25;21.60;99.90
13328;DHT22;6733;51.044;3.746;2023-09-19T09:51:40;21.90;99.90
13328;DHT22;6733;51.044;3.746;2023-09-19T09:54:15;21.80;99.90
13328;DHT22;6733;51.044;3.746;2023-09-19T10:02:14;22.70;99.90
13328;DHT22;6733;51.044;3.746;2023-09-19T10:04:46;22.90;99.90
13328;DHT22;6733;51.044;3.746;2023-09-19T10:07:25;22.90;99.90
13328;DHT22;6733;51.044;3.746;2023-09-19T10:09:54;22.90;99.90
13328;DHT22;6733;51.044;3.746;2023-09-19T10:12:29;22.60;99.90
13328;DHT22;6733;51.044;3.746;2023-09-19T10:14:56;23.00;99.90
13328;DHT22;6733;51.044;3.746;2023-09-19T10:17:25;23.50;99.90
13328;DHT22;6733;51.044;3.746;2023-09-19T10:19:56;23.30;99.90
13328;DHT22;6733;51.044;3.746;2023-09-19T10:22:26;23.60;99.90
13328;DHT22;6733;51.044;3.746;2023-09-19T10:24:53;23.50;99.90
13328;DHT22;6733;51.044;3.746;2023-09-19T10:27:25;23.40;99.90
13328;DHT22;6733;51.044;3.746;2023-09-19T10:29:52;23.00;99.90
13328;DHT22;6733;51.044;3.746;2023-09-19T10:32:23;22.80;99.90
13328;DHT22;6733;51.044;3.746;2023-09-19T10:34:51;23.30;99.90
13328;DHT22;6733;51.044;3.746;2023-09-19T10:37:22;23.70;99.90
13328;DHT22;6733;51.044;3.746;2023-09-19T10:39:52;23.90;99.90
13328;DHT22;6733;51.044;3.746;2023-09-19T10:42:23;24.10;99.90
13328;DHT22;6733;51.044;3.746;2023-09-19T10:44:54;24.00;99.90
13328;DHT22;6733;51.044;3.746;2023-09-19T10:47:21;23.90;99.90
13328;DHT22;6733;51.044;3.746;2023-09-19T10:49:50;23.90;99.90
13328;DHT22;6733;51.044;3.746;2023-09-19T10:52:20;24.00;99.90
13328;DHT22;6733;51.044;3.746;2023-09-19T10:54:50;24.20;99.90
13328;DHT22;6733;51.044;3.746;2023-09-19T10:57:21;24.00;99.90
13328;DHT22;6733;51.044;3.746;2023-09-19T11:00:11;23.30;99.90
13328;DHT22;6733;51.044;3.746;2023-09-19T11:05:41;23.60;99.90
13328;DHT22;6733;51.044;3.746;2023-09-19T11:08:08;23.80;99.90
13328;DHT22;6733;51.044;3.746;2023-09-19T11:10:48;23.60;99.90
13328;DHT22;6733;51.044;3.746;2023-09-19T11:13:28;23.80;99.90
13328;DHT22;6733;51.044;3.746;2023-09-19T11:26:45;23.50;99.90
13328;DHT22;6733;51.044;3.746;2023-09-19T11:29:30;22.70;99.90
13328;DHT22;6733;51.044;3.746;2023-09-19T11:31:58;23.10;99.90
13328;DHT22;6733;51.044;3.746;2023-09-19T11:34:40;23.00;99.90
13328;DHT22;6733;51.044;3.746;2023-09-19T11:40:07;24.30;99.90
13328;DHT22;6733;51.044;3.746;2023-09-19T11:48:24;24.40;99.90
13328;DHT22;6733;51.044;3.746;2023-09-19T11:50:53;23.80;99.90
13328;DHT22;6733;51.044;3.746;2023-09-19T11:53:21;23.60;99.90
13328;DHT22;6733;51.044;3.746;2023-09-19T11:55:47;23.40;99.90
13328;DHT22;6733;51.044;3.746;2023-09-19T11:58:17;23.50;99.90
13328;DHT22;6733;51.044;3.746;2023-09-19T12:00:45;23.20;99.90
13328;DHT22;6733;51.044;3.746;2023-09-19T12:03:12;23.00;99.90
13328;DHT22;6733;51.044;3.746;2023-09-19T12:05:40;23.00;99.90
13328;DHT22;6733;51.044;3.746;2023-09-19T12:08:10;22.80;99.90
13328;DHT22;6733;51.044;3.746;2023-09-19T12:10:49;22.80;99.90
13328;DHT22;6733;51.044;3.746;2023-09-19T12:13:18;22.70;99.90
13328;DHT22;6733;51.044;3.746;2023-09-19T12:15:45;23.00;99.90
13328;DHT22;6733;51.044;3.746;2023-09-19T12:18:30;23.50;99.90
13328;DHT22;6733;51.044;3.746;2023-09-19T12:20:56;23.20;99.90
13328;DHT22;6733;51.044;3.746;2023-09-19T12:23:24;23.20;99.90
13328;DHT22;6733;51.044;3.746;2023-09-19T12:25:52;23.30;99.90
13328;DHT22;6733;51.044;3.746;2023-09-19T12:28:20;23.10;99.90
13328;DHT22;6733;51.044;3.746;2023-09-19T12:30:49;22.80;99.90
13328;DHT22;6733;51.044;3.746;2023-09-19T12:33:18;22.20;99.90
13328;DHT22;6733;51.044;3.746;2023-09-19T12:35:45;22.60;99.90
13328;DHT22;6733;51.044;3.746;2023-09-19T12:38:28;23.00;99.90
13328;DHT22;6733;51.044;3.746;2023-09-19T12:40:57;22.80;99.90
13328;DHT22;6733;51.044;3.746;2023-09-19T12:43:31;23.10;99.90
13328;DHT22;6733;51.044;3.746;2023-09-19T12:46:02;23.20;99.90
13328;DHT22;6733;51.044;3.746;2023-09-19T12:48:28;23.50;99.90
13328;DHT22;6733;51.044;3.746;2023-09-19T12:53:38;23.40;99.90
13328;DHT22;6733;51.044;3.746;2023-09-19T12:56:14;23.60;99.90
13328;DHT22;6733;51.044;3.746;2023-09-19T12:58:55;23.50;99.90
13328;DHT22;6733;51.044;3.746;2023-09-19T13:01:26;23.10;99.90
13328;DHT22;6733;51.044;3.746;2023-09-19T13:06:52;22.40;99.90
13328;DHT22;6733;51.044;3.746;2023-09-19T13:09:22;22.40;99.90
13328;DHT22;6733;51.044;3.746;2023-09-19T13:11:57;22.80;99.90
13328;DHT22;6733;51.044;3.746;2023-09-19T13:14:26;22.90;99.90
13328;DHT22;6733;51.044;3.746;2023-09-19T13:17:05;23.10;99.90
13328;DHT22;6733;51.044;3.746;2023-09-19T13:19:45;23.10;99.90
13328;DHT22;6733;51.044;3.746;2023-09-19T13:22:43;22.80;99.90
13328;DHT22;6733;51.044;3.746;2023-09-19T13:25:18;22.90;99.90
13328;DHT22;6733;51.044;3.746;2023-09-19T13:27:50;23.10;99.90
13328;DHT22;6733;51.044;3.746;2023-09-19T13:30:21;23.30;99.90
13328;DHT22;6733;51.044;3.746;2023-09-19T13:32:48;23.40;99.90
13328;DHT22;6733;51.044;3.746;2023-09-19T13:35:14;23.60;99.90
13328;DHT22;6733;51.044;3.746;2023-09-19T13:37:42;23.70;99.90
13328;DHT22;6733;51.044;3.746;2023-09-19T13:40:09;23.60;99.90
13328;DHT22;6733;51.044;3.746;2023-09-19T13:42:36;23.30;99.90
13328;DHT22;6733;51.044;3.746;2023-09-19T13:45:06;23.20;99.90
13328;DHT22;6733;51.044;3.746;2023-09-19T13:47:33;23.10;99.90
13328;DHT22;6733;51.044;3.746;2023-09-19T13:50:01;22.90;99.90
13328;DHT22;6733;51.044;3.746;2023-09-19T13:52:29;22.80;99.90
13328;DHT22;6733;51.044;3.746;2023-09-19T13:54:57;22.80;99.90
13328;DHT22;6733;51.044;3.746;2023-09-19T13:57:24;22.60;99.90
13328;DHT22;6733;51.044;3.746;2023-09-19T13:59:54;22.30;99.90
13328;DHT22;6733;51.044;3.746;2023-09-19T14:02:23;22.10;99.90
13328;DHT22;6733;51.044;3.746;2023-09-19T14:04:50;22.10;99.90
13328;DHT22;6733;51.044;3.746;2023-09-19T14:07:16;22.50;99.90
13328;DHT22;6733;51.044;3.746;2023-09-19T14:09:44;22.50;99.90
13328;DHT22;6733;51.044;3.746;2023-09-19T14:12:11;22.70;99.90
13328;DHT22;6733;51.044;3.746;2023-09-19T14:14:37;22.60;99.90
13328;DHT22;6733;51.044;3.746;2023-09-19T14:17:04;22.50;99.90
13328;DHT22;6733;51.044;3.746;2023-09-19T14:19:30;22.30;99.90
13328;DHT22;6733;51.044;3.746;2023-09-19T14:21:57;22.20;99.90
13328;DHT22;6733;51.044;3.746;2023-09-19T14:24:23;22.10;99.90
13328;DHT22;6733;51.044;3.746;2023-09-19T14:26:49;22.00;99.90
13328;DHT22;6733;51.044;3.746;2023-09-19T14:29:16;22.00;99.90
13328;DHT22;6733;51.044;3.746;2023-09-19T14:31:43;22.00;99.90
13328;DHT22;6733;51.044;3.746;2023-09-19T14:34:09;22.10;99.90
13328;DHT22;6733;51.044;3.746;2023-09-19T14:36:36;21.90;99.90
13328;DHT22;6733;51.044;3.746;2023-09-19T14:39:04;21.70;99.90
13328;DHT22;6733;51.044;3.746;2023-09-19T14:41:31;21.60;99.90
13328;DHT22;6733;51.044;3.746;2023-09-19T14:43:57;21.50;99.90
13328;DHT22;6733;51.044;3.746;2023-09-19T14:46:24;21.50;99.90
13328;DHT22;6733;51.044;3.746;2023-09-19T14:48:53;21.50;99.90
13328;DHT22;6733;51.044;3.746;2023-09-19T14:51:19;21.70;99.90
13328;DHT22;6733;51.044;3.746;2023-09-19T14:53:46;22.00;99.90
13328;DHT22;6733;51.044;3.746;2023-09-19T14:56:13;22.00;99.90
13328;DHT22;6733;51.044;3.746;2023-09-19T14:58:44;21.90;99.90
13328;DHT22;6733;51.044;3.746;2023-09-19T15:01:11;21.60;99.90
13328;DHT22;6733;51.044;3.746;2023-09-19T15:03:39;21.50;99.90
13328;DHT22;6733;51.044;3.746;2023-09-19T15:06:12;21.60;99.90
13328;DHT22;6733;51.044;3.746;2023-09-19T15:08:44;21.60;99.90
13328;DHT22;6733;51.044;3.746;2023-09-19T15:11:19;21.70;99.90
13328;DHT22;6733;51.044;3.746;2023-09-19T15:13:47;21.70;99.90
13328;DHT22;6733;51.044;3.746;2023-09-19T15:16:14;21.60;99.90
13328;DHT22;6733;51.044;3.746;2023-09-19T15:18:41;21.80;99.90
13328;DHT22;6733;51.044;3.746;2023-09-19T15:21:11;21.70;99.90
13328;DHT22;6733;51.044;3.746;2023-09-19T15:23:39;21.70;99.90
13328;DHT22;6733;51.044;3.746;2023-09-19T15:26:07;21.60;99.90
13328;DHT22;6733;51.044;3.746;2023-09-19T15:28:40;21.20;99.90
13328;DHT22;6733;51.044;3.746;2023-09-19T15:31:08;21.10;99.90
13328;DHT22;6733;51.044;3.746;2023-09-19T15:33:35;21.10;99.90
13328;DHT22;6733;51.044;3.746;2023-09-19T15:36:08;21.10;99.90
13328;DHT22;6733;51.044;3.746;2023-09-19T15:41:23;21.10;99.90
13328;DHT22;6733;51.044;3.746;2023-09-19T15:43:50;20.80;99.90
13328;DHT22;6733;51.044;3.746;2023-09-19T15:46:16;20.80;99.90
13328;DHT22;6733;51.044;3.746;2023-09-19T15:48:42;20.70;99.90
13328;DHT22;6733;51.044;3.746;2023-09-19T15:51:08;20.70;99.90
13328;DHT22;6733;51.044;3.746;2023-09-19T15:53:45;20.80;99.90
13328;DHT22;6733;51.044;3.746;2023-09-19T15:56:13;20.90;99.90
13328;DHT22;6733;51.044;3.746;2023-09-19T15:58:46;20.70;99.90
13328;DHT22;6733;51.044;3.746;2023-09-19T16:01:12;20.60;99.90
13328;DHT22;6733;51.044;3.746;2023-09-19T16:03:47;20.50;99.90
13328;DHT22;6733;51.044;3.746;2023-09-19T16:06:15;20.70;99.90
13328;DHT22;6733;51.044;3.746;2023-09-19T16:08:49;20.90;99.90
13328;DHT22;6733;51.044;3.746;2023-09-19T16:11:17;21.00;99.90
13328;DHT22;6733;51.044;3.746;2023-09-19T16:13:44;21.10;99.90
13328;DHT22;6733;51.044;3.746;2023-09-19T16:16:13;20.80;99.90
13328;DHT22;6733;51.044;3.746;2023-09-19T16:18:49;21.20;99.90
13328;DHT22;6733;51.044;3.746;2023-09-19T16:21:16;20.90;99.90
13328;DHT22;6733;51.044;3.746;2023-09-19T16:23:45;21.10;99.90
13328;DHT22;6733;51.044;3.746;2023-09-19T16:26:12;21.00;99.90
13328;DHT22;6733;51.044;3.746;2023-09-19T16:28:40;20.90;99.90
13328;DHT22;6733;51.044;3.746;2023-09-19T16:31:08;20.80;99.90
13328;DHT22;6733;51.044;3.746;2023-09-19T16:33:35;20.60;99.90
13328;DHT22;6733;51.044;3.746;2023-09-19T16:36:19;20.70;99.90
13328;DHT22;6733;51.044;3.746;2023-09-19T16:38:47;20.60;99.90
13328;DHT22;6733;51.044;3.746;2023-09-19T16:41:14;20.40;99.90
13328;DHT22;6733;51.044;3.746;2023-09-19T16:43:42;20.40;99.90
13328;DHT22;6733;51.044;3.746;2023-09-19T16:46:10;20.40;99.90
13328;DHT22;6733;51.044;3.746;2023-09-19T16:48:43;20.40;99.90
13328;DHT22;6733;51.044;3.746;2023-09-19T16:51:13;20.30;99.90
13328;DHT22;6733;51.044;3.746;2023-09-19T16:53:40;20.30;99.90
13328;DHT22;6733;51.044;3.746;2023-09-19T16:56:08;20.30;99.90
13328;DHT22;6733;51.044;3.746;2023-09-19T16:58:36;20.10;99.90
13328;DHT22;6733;51.044;3.746;2023-09-19T17:01:02;20.20;99.90
13328;DHT22;6733;51.044;3.746;2023-09-19T17:03:28;20.00;99.90
13328;DHT22;6733;51.044;3.746;2023-09-19T17:05:58;19.80;99.90
13328;DHT22;6733;51.044;3.746;2023-09-19T17:08:28;19.70;99.90
13328;DHT22;6733;51.044;3.746;2023-09-19T17:11:04;19.70;99.90
13328;DHT22;6733;51.044;3.746;2023-09-19T17:13:32;19.70;99.90
13328;DHT22;6733;51.044;3.746;2023-09-19T17:16:09;19.70;99.90
13328;DHT22;6733;51.044;3.746;2023-09-19T17:18:38;19.70;99.90
13328;DHT22;6733;51.044;3.746;2023-09-19T17:21:05;19.60;99.90
13328;DHT22;6733;51.044;3.746;2023-09-19T17:23:33;19.50;99.90
13328;DHT22;6733;51.044;3.746;2023-09-19T17:26:03;19.50;99.90